Time;durP1;ratioP1;P1;durP2;ratioP2;P2;SDS_P1;SDS_P2;PMS_P1;PMS_P2;Temp;Humidity;BMP_temperature;BMP_pressure;BME280_temperature;BME280_humidity;BME280_pressure;Samples;Min_cycle;Max_cycle;Signal;HPM_P1;HPM_P2
2021/08/28 00:01:25;;;;;;;;;1.00;1.00;;;;;26.92;38.01;102142.69;5035887;28;45453;-68
2021/08/28 00:03:51;;;;;;;;;2.00;2.00;;;;;26.92;38.00;102145.34;5030594;28;46287;-67
2021/08/28 00:06:16;;;;;;;;;1.00;1.00;;;;;26.91;38.33;102144.53;5035020;28;45317;-67
2021/08/28 00:08:41;;;;;;;;;1.25;1.25;;;;;26.92;38.21;102137.34;5033111;28;45256;-68
2021/08/28 00:11:07;;;;;;;;;1.50;1.00;;;;;26.90;37.93;102134.88;5035977;28;46776;-67
2021/08/28 00:13:32;;;;;;;;;2.67;1.33;;;;;26.89;37.92;102130.53;5035902;28;45467;-67
2021/08/28 00:15:57;;;;;;;;;2.75;1.50;;;;;26.90;38.10;102132.19;5035597;28;45617;-68
2021/08/28 00:18:23;;;;;;;;;2.00;1.00;;;;;26.90;37.87;102128.69;5036089;28;45418;-68
2021/08/28 00:20:48;;;;;;;;;0.00;0.00;;;;;26.91;38.35;102136.50;5038012;28;45516;-67
2021/08/28 00:23:13;;;;;;;;;1.50;1.50;;;;;26.90;38.40;102137.53;5035965;28;46119;-68
2021/08/28 00:25:39;;;;;;;;;1.00;1.00;;;;;26.91;38.11;102135.66;5035744;28;45391;-68
2021/08/28 00:28:04;;;;;;;;;1.50;1.50;;;;;26.90;38.00;102136.69;5035823;28;45838;-67
2021/08/28 00:30:30;;;;;;;;;0.75;0.75;;;;;26.91;38.25;102136.50;5035527;28;45493;-67
2021/08/28 00:32:56;;;;;;;;;1.25;1.25;;;;;26.92;37.97;102134.66;5037066;28;45952;-68
2021/08/28 00:35:21;;;;;;;;;1.00;1.00;;;;;26.91;38.01;102136.50;5036489;28;45291;-67
2021/08/28 00:37:47;;;;;;;;;1.00;1.00;;;;;26.91;38.28;102135.66;5035646;28;45919;-68
2021/08/28 00:40:12;;;;;;;;;1.50;1.50;;;;;26.91;38.18;102138.34;5035662;28;45334;-67
2021/08/28 00:42:50;;;;;;;;;1.00;1.00;;;;;26.91;38.09;102136.50;5031912;28;46721;-67
2021/08/28 00:45:16;;;;;;;;;2.00;2.00;;;;;26.91;37.72;102133.00;5034224;28;45274;-68
2021/08/28 00:47:53;;;;;;;;;2.00;2.00;;;;;26.91;38.00;102125.81;5032424;28;45278;-67
2021/08/28 00:50:19;;;;;;;;;2.00;2.00;;;;;26.91;37.82;102133.00;5030145;28;45452;-68
2021/08/28 00:52:44;;;;;;;;;1.50;1.50;;;;;26.89;37.82;102127.84;5035313;28;45389;-68
2021/08/28 00:55:10;;;;;;;;;1.75;1.75;;;;;26.92;38.08;102132.84;5035331;28;45271;-67
2021/08/28 00:57:35;;;;;;;;;0.33;0.33;;;;;26.93;38.10;102128.34;5035597;28;45373;-68
2021/08/28 01:00:02;;;;;;;;;1.00;1.00;;;;;26.94;38.04;102127.31;5036036;28;45407;-68
2021/08/28 01:02:30;;;;;;;;;2.00;2.00;;;;;26.93;38.02;102126.47;5036416;28;47676;-68
2021/08/28 01:05:04;;;;;;;;;1.75;1.75;;;;;26.92;37.99;102124.00;5034759;28;45552;-68
2021/08/28 01:07:43;;;;;;;;;1.33;1.00;;;;;26.93;38.24;102123.78;5034973;28;45481;-67
2021/08/28 01:10:10;;;;;;;;;1.50;1.50;;;;;26.94;38.27;102121.97;5035028;28;45441;-68
2021/08/28 01:12:40;;;;;;;;;1.75;1.75;;;;;26.92;37.88;102118.66;5035081;28;46304;-68
2021/08/28 01:15:09;;;;;;;;;1.33;1.00;;;;;26.89;37.82;102116.34;5035156;28;45326;-68
2021/08/28 01:17:37;;;;;;;;;1.00;1.00;;;;;26.91;38.08;102119.66;5036856;28;45511;-67
2021/08/28 01:20:23;;;;;;;;;2.00;1.25;;;;;26.89;37.75;102119.84;5034921;28;45224;-67
2021/08/28 01:22:50;;;;;;;;;3.00;1.00;;;;;26.88;38.23;102117.38;5028847;28;46383;-67
2021/08/28 01:25:16;;;;;;;;;2.00;2.00;;;;;26.87;38.32;102121.03;5028801;28;45533;-67
2021/08/28 01:27:49;;;;;;;;;1.00;1.00;;;;;26.88;37.84;102131.53;5034544;28;45503;-67
2021/08/28 01:30:15;;;;;;;;;1.25;1.00;;;;;26.88;38.32;102130.72;5034903;28;45382;-68
2021/08/28 01:32:43;;;;;;;;;1.25;1.00;;;;;26.84;38.03;102120.41;5036664;28;45328;-67
2021/08/28 01:35:09;;;;;;;;;2.50;1.50;;;;;26.87;38.24;102132.56;5034623;28;45330;-67
2021/08/28 01:37:37;;;;;;;;;0.33;0.33;;;;;26.88;38.22;102133.38;5034679;28;45337;-67
2021/08/28 01:40:05;;;;;;;;;1.00;1.00;;;;;26.87;38.16;102126.38;5034728;28;45396;-67
2021/08/28 01:42:32;;;;;;;;;1.50;1.50;;;;;26.88;38.37;102130.72;5034001;28;45404;-67
2021/08/28 01:44:58;;;;;;;;;2.75;1.00;;;;;26.87;38.51;102129.88;5035838;28;45415;-67
2021/08/28 01:47:25;;;;;;;;;1.33;1.33;;;;;26.85;38.12;102129.25;5035399;28;45404;-68
2021/08/28 01:49:52;;;;;;;;;4.33;1.00;;;;;26.85;37.88;102122.03;5034454;28;45480;-68
2021/08/28 01:52:17;;;;;;;;;2.00;1.00;;;;;26.86;38.28;102122.88;5034381;28;46396;-67
2021/08/28 01:54:43;;;;;;;;;4.00;2.00;;;;;26.85;38.16;102126.56;5034324;28;45491;-67
2021/08/28 01:57:09;;;;;;;;;0.75;0.75;;;;;26.86;38.11;102122.88;5034323;28;45296;-67
2021/08/28 01:59:35;;;;;;;;;1.25;1.25;;;;;26.85;37.88;102130.03;5036376;28;45432;-68
2021/08/28 02:02:01;;;;;;;;;2.00;1.00;;;;;26.86;38.10;102133.56;5028328;28;45492;-67
2021/08/28 02:04:27;;;;;;;;;0.25;0.25;;;;;26.86;38.21;102130.88;5028122;28;45361;-67
2021/08/28 02:07:01;;;;;;;;;1.00;1.00;;;;;26.87;37.97;102126.38;5034026;28;45397;-67
2021/08/28 02:09:56;;;;;;;;;1.00;1.00;;;;;26.88;38.03;102134.19;5019465;28;45467;-67
2021/08/28 02:12:33;;;;;;;;;1.25;1.00;;;;;26.89;38.02;102129.69;5017185;28;47429;-67
2021/08/28 02:15:07;;;;;;;;;3.00;1.25;;;;;26.89;38.11;102138.53;5028160;28;45485;-67
2021/08/28 02:17:41;;;;;;;;;0.50;0.50;;;;;26.89;38.16;102132.38;5034163;28;45461;-68
2021/08/28 02:20:08;;;;;;;;;4.00;1.50;;;;;26.88;38.10;102131.53;5034065;28;45434;-68
2021/08/28 02:22:39;;;;;;;;;0.00;0.00;;;;;26.89;38.10;102135.03;5033930;28;45458;-67
2021/08/28 02:25:12;;;;;;;;;1.75;1.75;;;;;26.89;38.36;102127.03;5033844;28;45320;-67
2021/08/28 02:27:45;;;;;;;;;1.00;1.00;;;;;26.89;38.08;102132.38;5033974;28;45332;-67
2021/08/28 02:30:13;;;;;;;;;1.00;1.00;;;;;26.89;38.18;102133.19;5034006;28;45407;-67
2021/08/28 02:32:39;;;;;;;;;2.00;2.00;;;;;26.89;37.86;102137.69;5035903;28;45362;-67
2021/08/28 02:35:08;;;;;;;;;1.00;1.00;;;;;26.85;38.09;102130.03;5033657;28;45389;-67
2021/08/28 02:37:37;;;;;;;;;1.25;1.25;;;;;26.90;37.87;102136.69;5033754;28;45373;-67
2021/08/28 02:40:07;;;;;;;;;1.00;1.00;;;;;26.90;38.00;102140.22;5027743;28;45495;-67
2021/08/28 02:42:33;;;;;;;;;2.75;2.00;;;;;26.90;38.29;102140.22;5030545;28;45497;-68
2021/08/28 02:45:01;;;;;;;;;1.00;1.00;;;;;26.91;38.22;102130.34;5030744;28;45593;-67
2021/08/28 02:47:28;;;;;;;;;1.25;1.25;;;;;26.89;38.03;102133.19;5035023;28;45420;-67
2021/08/28 02:49:56;;;;;;;;;2.50;1.00;;;;;26.89;37.94;102130.53;5033575;28;45539;-67
2021/08/28 02:52:23;;;;;;;;;1.75;1.75;;;;;26.89;38.32;102122.53;5033425;28;45357;-67
2021/08/28 02:54:49;;;;;;;;;1.00;1.00;;;;;26.85;37.88;102119.38;5033119;28;45516;-67
2021/08/28 02:57:17;;;;;;;;;1.00;1.00;;;;;26.87;38.30;102127.22;5033640;28;45381;-67
2021/08/28 02:59:43;;;;;;;;;1.00;1.00;;;;;26.87;37.92;102124.53;5035480;28;45637;-68
2021/08/28 03:02:09;;;;;;;;;0.25;0.25;;;;;26.87;38.02;102121.03;5033263;28;45944;-67
2021/08/28 03:04:36;;;;;;;;;1.00;1.00;;;;;26.87;37.95;102118.38;5033293;28;45430;-68
2021/08/28 03:07:03;;;;;;;;;1.00;1.00;;;;;26.86;38.24;102120.19;5033190;28;45556;-67
2021/08/28 03:09:28;;;;;;;;;1.00;1.00;;;;;26.85;37.92;102118.56;5033218;28;45490;-67
2021/08/28 03:11:57;;;;;;;;;1.00;1.00;;;;;26.84;38.24;102115.06;5034661;28;47010;-68
2021/08/28 03:14:24;;;;;;;;;0.75;0.75;;;;;26.84;37.89;102112.38;5033894;28;45436;-67
2021/08/28 03:16:52;;;;;;;;;2.00;1.25;;;;;26.81;38.25;102114.59;5033189;28;45602;-67
2021/08/28 03:19:22;;;;;;;;;1.00;1.00;;;;;26.83;38.21;102117.91;5027408;28;47142;-67
2021/08/28 03:21:47;;;;;;;;;2.75;2.75;;;;;26.83;37.95;102118.72;5028331;28;45498;-67
2021/08/28 03:24:16;;;;;;;;;1.00;1.00;;;;;26.83;38.26;102116.06;5032005;28;45281;-67
2021/08/28 03:26:41;;;;;;;;;0.75;0.75;;;;;26.82;38.13;102119.75;5037112;28;45267;-68
2021/08/28 03:29:07;;;;;;;;;1.00;1.00;;;;;26.82;38.00;102111.75;5036745;28;45364;-68
2021/08/28 03:31:33;;;;;;;;;0.75;0.75;;;;;26.83;38.03;102118.72;5036379;28;45617;-67
2021/08/28 03:34:00;;;;;;;;;2.25;1.50;;;;;26.82;38.20;102119.75;5036662;28;45398;-67
2021/08/28 03:36:26;;;;;;;;;1.50;1.50;;;;;26.83;38.00;102120.56;5036904;28;45478;-67
2021/08/28 03:38:52;;;;;;;;;2.75;1.00;;;;;26.83;38.33;102124.06;5037981;28;45431;-67
2021/08/28 03:41:18;;;;;;;;;2.25;2.25;;;;;26.81;37.63;102115.41;5024494;28;47135;-67
2021/08/28 03:43:45;;;;;;;;;4.75;1.00;;;;;26.82;38.21;102119.75;5036228;28;45556;-67
2021/08/28 03:46:11;;;;;;;;;0.75;0.75;;;;;26.81;37.87;102120.75;5036557;28;45580;-67
2021/08/28 03:48:40;;;;;;;;;1.50;1.50;;;;;26.81;37.94;102106.56;5036561;28;45400;-67
2021/08/28 03:51:06;;;;;;;;;2.25;1.00;;;;;26.81;37.88;102112.75;5036554;28;46405;-68
2021/08/28 03:53:32;;;;;;;;;2.25;1.00;;;;;26.82;38.25;102111.75;5035894;28;45553;-67
2021/08/28 03:55:58;;;;;;;;;2.00;2.00;;;;;26.83;38.30;102112.56;5036281;28;45311;-67
2021/08/28 03:58:24;;;;;;;;;1.75;1.00;;;;;26.82;38.22;102103.75;5030447;28;45458;-67
2021/08/28 04:00:50;;;;;;;;;1.75;1.75;;;;;26.82;37.79;102106.41;5030820;28;46084;-67
2021/08/28 04:03:16;;;;;;;;;2.00;1.00;;;;;26.86;38.11;102117.53;5035726;28;45516;-67
2021/08/28 04:05:42;;;;;;;;;1.25;1.00;;;;;26.85;37.82;102111.34;5038064;28;45471;-68
2021/08/28 04:08:08;;;;;;;;;1.00;1.00;;;;;26.86;38.13;102112.19;5035578;28;45405;-67
2021/08/28 04:10:33;;;;;;;;;1.00;1.00;;;;;26.88;37.89;102117.38;5035897;28;47158;-67
2021/08/28 04:12:58;;;;;;;;;1.00;1.00;;;;;26.87;37.65;102113.88;5035997;28;45487;-67
2021/08/28 04:15:24;;;;;;;;;2.00;0.50;;;;;26.86;38.26;102112.19;5036282;28;45593;-67
2021/08/28 04:17:49;;;;;;;;;0.50;0.50;;;;;26.85;37.96;102114.03;5038081;28;45506;-67
2021/08/28 04:20:14;;;;;;;;;0.00;0.00;;;;;26.83;38.04;102110.72;5035718;28;46281;-67
2021/08/28 04:22:40;;;;;;;;;1.00;1.00;;;;;26.87;38.35;102113.03;5035563;28;45375;-67
2021/08/28 04:25:06;;;;;;;;;0.00;0.00;;;;;26.85;37.85;102118.56;5035945;28;45396;-67
2021/08/28 04:27:31;;;;;;;;;1.25;1.00;;;;;26.87;37.95;102121.03;5035671;28;45536;-68
2021/08/28 04:29:57;;;;;;;;;2.75;1.00;;;;;26.86;38.12;102112.19;5037094;28;46127;-67
2021/08/28 04:32:22;;;;;;;;;1.00;1.00;;;;;26.85;37.91;102114.03;5036316;28;45348;-67
2021/08/28 04:34:47;;;;;;;;;1.25;1.25;;;;;26.84;37.84;102103.53;5022190;28;45579;-68
2021/08/28 04:37:13;;;;;;;;;1.00;1.00;;;;;26.83;38.19;102104.53;5029002;28;45370;-68
2021/08/28 04:39:39;;;;;;;;;2.00;2.00;;;;;26.84;37.99;102108.88;5031913;28;46585;-68
2021/08/28 04:42:05;;;;;;;;;0.00;0.00;;;;;26.85;37.98;102110.56;5033986;28;45554;-68
2021/08/28 04:44:30;;;;;;;;;1.00;1.00;;;;;26.84;38.14;102111.56;5023781;28;45516;-67
2021/08/28 04:46:55;;;;;;;;;1.00;1.00;;;;;26.83;37.71;102109.88;5035310;28;45536;-68
2021/08/28 04:49:21;;;;;;;;;0.00;0.00;;;;;26.84;37.75;102116.91;5022285;28;48253;-68
2021/08/28 04:51:46;;;;;;;;;0.25;0.25;;;;;26.80;38.26;102112.94;5034929;28;51272;-67
2021/08/28 04:54:12;;;;;;;;;1.00;1.00;;;;;26.82;37.82;102119.75;5035717;28;45513;-68
2021/08/28 04:56:37;;;;;;;;;2.50;1.00;;;;;26.81;38.01;102111.91;5037595;28;45294;-68
2021/08/28 04:59:02;;;;;;;;;1.00;0.33;;;;;26.79;37.77;102111.28;5035210;28;46271;-67
2021/08/28 05:01:28;;;;;;;;;1.75;1.75;;;;;26.80;37.99;102115.63;5034422;28;45600;-67
2021/08/28 05:03:53;;;;;;;;;1.00;1.00;;;;;26.77;37.65;102114.13;5035401;28;45429;-67
2021/08/28 05:06:18;;;;;;;;;0.67;0.00;;;;;26.81;37.79;102125.25;5035014;28;46055;-67
2021/08/28 05:08:44;;;;;;;;;1.50;1.00;;;;;26.79;38.03;102122.78;5037092;28;46183;-67
2021/08/28 05:11:09;;;;;;;;;1.00;1.00;;;;;26.79;37.99;102130.78;5035141;28;45327;-68
2021/08/28 05:13:34;;;;;;;;;2.00;2.00;;;;;26.77;38.33;102127.47;5035057;28;45465;-67
2021/08/28 05:16:00;;;;;;;;;0.50;0.50;;;;;26.79;37.99;102130.78;5029338;28;45393;-68
2021/08/28 05:18:25;;;;;;;;;0.50;0.50;;;;;26.78;37.94;102133.66;5033046;28;45304;-67
2021/08/28 05:20:51;;;;;;;;;2.00;2.00;;;;;26.77;37.77;102132.81;5032435;28;45417;-67
2021/08/28 05:23:16;;;;;;;;;1.00;1.00;;;;;26.79;38.12;102130.78;5035498;28;45376;-68
2021/08/28 05:25:42;;;;;;;;;4.00;1.00;;;;;26.77;37.96;102127.47;5034787;28;45724;-67
2021/08/28 05:28:07;;;;;;;;;1.00;1.00;;;;;26.78;38.08;102125.66;5034558;28;46880;-68
2021/08/28 05:30:33;;;;;;;;;1.00;1.00;;;;;26.78;37.89;102128.31;5035034;28;45386;-68
2021/08/28 05:32:58;;;;;;;;;1.00;1.00;;;;;26.77;38.22;102123.97;5036354;28;45214;-67
2021/08/28 05:35:23;;;;;;;;;0.75;0.75;;;;;26.78;37.93;102125.66;5035444;28;45321;-68
2021/08/28 05:37:49;;;;;;;;;0.75;0.75;;;;;26.78;38.17;102117.63;5034511;28;45296;-67
2021/08/28 05:40:19;;;;;;;;;1.00;1.00;;;;;26.79;38.03;102125.47;5034653;28;45463;-67
2021/08/28 05:42:44;;;;;;;;;0.00;0.00;;;;;26.80;38.02;102128.97;5034934;28;45409;-68
2021/08/28 05:45:10;;;;;;;;;1.00;1.00;;;;;26.78;37.92;102122.97;5034801;28;45449;-68
2021/08/28 05:47:38;;;;;;;;;1.50;0.75;;;;;26.80;37.92;102120.94;5036349;28;47217;-67
2021/08/28 05:50:05;;;;;;;;;1.00;1.00;;;;;26.81;37.81;102128.75;5033279;28;45481;-67
2021/08/28 05:52:30;;;;;;;;;2.50;1.25;;;;;26.81;38.06;102125.25;5034327;28;45398;-67
2021/08/28 05:54:55;;;;;;;;;0.25;0.25;;;;;26.82;37.89;102130.44;5028620;28;45425;-68
2021/08/28 05:57:21;;;;;;;;;1.00;1.00;;;;;26.83;38.12;102131.25;5033086;28;45330;-68
2021/08/28 05:59:46;;;;;;;;;0.25;0.25;;;;;26.82;37.80;102133.09;5031914;28;45395;-67
2021/08/28 06:02:12;;;;;;;;;2.00;2.00;;;;;26.83;37.90;102136.59;5034440;28;45404;-67
2021/08/28 06:04:37;;;;;;;;;1.00;1.00;;;;;26.83;37.95;102140.09;5033892;28;45516;-67
2021/08/28 06:07:03;;;;;;;;;2.25;1.00;;;;;26.84;38.00;102140.94;5034010;28;46811;-67
2021/08/28 06:09:28;;;;;;;;;3.00;1.00;;;;;26.84;38.07;102138.25;5034332;28;45498;-67
2021/08/28 06:11:55;;;;;;;;;2.00;1.00;;;;;26.81;37.79;102136.78;5035971;28;45519;-67
2021/08/28 06:14:20;;;;;;;;;1.00;1.00;;;;;26.84;37.55;102149.78;5028888;28;45333;-67
2021/08/28 06:16:46;;;;;;;;;2.50;0.75;;;;;26.84;37.86;102140.94;5033859;28;45530;-67
2021/08/28 06:19:11;;;;;;;;;0.75;0.75;;;;;26.82;37.75;102141.13;5033754;28;45267;-67
2021/08/28 06:21:37;;;;;;;;;0.00;0.00;;;;;26.81;37.63;102149.28;5034291;28;45432;-67
2021/08/28 06:24:02;;;;;;;;;2.00;1.00;;;;;26.83;37.51;102153.44;5035196;28;45585;-68
2021/08/28 06:26:28;;;;;;;;;2.00;2.00;;;;;26.81;38.16;102150.13;5035340;28;45491;-67
2021/08/28 06:28:54;;;;;;;;;2.75;1.25;;;;;26.81;37.93;102154.63;5033874;28;45431;-67
2021/08/28 06:31:19;;;;;;;;;1.50;1.50;;;;;26.81;37.91;102159.97;5033993;28;45432;-67
2021/08/28 06:33:44;;;;;;;;;1.00;0.00;;;;;26.80;38.05;102156.50;5029363;28;45387;-67
2021/08/28 06:36:10;;;;;;;;;1.00;1.00;;;;;26.80;38.07;102153.81;5032637;28;46993;-67
2021/08/28 06:38:35;;;;;;;;;1.00;1.00;;;;;26.81;38.04;102157.31;5029808;28;45276;-67
2021/08/28 06:41:04;;;;;;;;;1.00;1.00;;;;;26.81;37.99;102159.97;5033399;28;45420;-67
2021/08/28 06:43:30;;;;;;;;;0.00;0.00;;;;;26.80;37.67;102159.16;5033707;28;45548;-67
2021/08/28 06:45:55;;;;;;;;;1.00;1.00;;;;;26.80;38.20;102166.34;5033431;28;46182;-67
2021/08/28 06:48:21;;;;;;;;;1.75;1.00;;;;;26.80;38.10;102161.00;5033339;28;45511;-67
2021/08/28 06:50:47;;;;;;;;;1.75;1.00;;;;;26.79;38.07;102157.50;5035686;28;45541;-67
2021/08/28 06:53:13;;;;;;;;;0.50;0.50;;;;;26.78;38.06;102155.00;5033682;28;45616;-67
2021/08/28 06:55:38;;;;;;;;;0.00;0.00;;;;;26.79;37.96;102159.31;5033362;28;45408;-67
2021/08/28 06:58:03;;;;;;;;;2.00;1.00;;;;;26.79;37.93;102154.81;5033716;28;45309;-67
2021/08/28 07:00:29;;;;;;;;;1.25;0.00;;;;;26.79;38.15;102154.81;5033615;28;45629;-67
2021/08/28 07:02:54;;;;;;;;;1.00;1.00;;;;;26.77;38.16;102156.84;5034829;28;45276;-67
2021/08/28 07:05:19;;;;;;;;;1.00;1.00;;;;;26.75;38.14;102150.88;5027852;28;46113;-67
2021/08/28 07:07:45;;;;;;;;;1.00;1.00;;;;;26.79;37.96;102160.16;5033174;28;45615;-67
2021/08/28 07:10:11;;;;;;;;;0.75;0.00;;;;;26.79;38.05;102164.66;5033551;28;45737;-67
2021/08/28 07:12:36;;;;;;;;;1.50;1.25;;;;;26.79;37.81;102168.19;5030262;28;45311;-67
2021/08/28 07:15:02;;;;;;;;;2.00;2.00;;;;;26.78;37.97;102160.34;5031610;28;46065;-67
2021/08/28 07:17:28;;;;;;;;;0.75;0.75;;;;;26.79;38.13;102160.16;5028095;28;45630;-67
2021/08/28 07:19:53;;;;;;;;;1.25;1.25;;;;;26.78;38.03;102168.38;5033265;28;45754;-67
2021/08/28 07:22:18;;;;;;;;;0.75;0.75;;;;;26.79;38.01;102162.84;5033459;28;45500;-67
2021/08/28 07:24:44;;;;;;;;;1.25;1.25;;;;;26.80;37.99;102163.66;5033194;28;46047;-67
2021/08/28 07:27:09;;;;;;;;;1.25;1.00;;;;;26.81;38.21;102157.31;5016515;28;46092;-67
2021/08/28 07:29:34;;;;;;;;;1.33;1.00;;;;;26.78;38.30;102152.34;5035405;28;45252;-67
2021/08/28 07:32:00;;;;;;;;;0.00;0.00;;;;;26.83;37.92;102160.59;5032708;28;45348;-67
2021/08/28 07:34:25;;;;;;;;;3.00;1.00;;;;;26.82;37.80;102162.47;5032976;28;46308;-67
2021/08/28 07:36:51;;;;;;;;;0.00;0.00;;;;;26.83;37.93;102174.78;5032969;28;45554;-67
2021/08/28 07:39:16;;;;;;;;;2.25;1.00;;;;;26.83;38.18;102168.63;5033273;28;45414;-67
2021/08/28 07:41:41;;;;;;;;;0.25;0.25;;;;;26.83;37.76;102169.47;5035089;28;45330;-67
2021/08/28 07:44:07;;;;;;;;;2.25;1.25;;;;;26.84;38.12;102170.28;5032668;28;46193;-67
2021/08/28 07:46:32;;;;;;;;;0.00;0.00;;;;;26.83;38.06;102174.78;5032517;28;45423;-67
2021/08/28 07:48:58;;;;;;;;;0.50;0.00;;;;;26.84;38.02;102171.13;5032830;28;45402;-67
2021/08/28 07:51:23;;;;;;;;;1.75;1.75;;;;;26.84;38.29;102168.47;5031608;28;45421;-67
2021/08/28 07:53:48;;;;;;;;;1.00;1.00;;;;;26.84;38.22;102173.81;5030555;28;45384;-67
2021/08/28 07:56:14;;;;;;;;;1.00;1.00;;;;;26.84;38.25;102165.78;5026598;28;45464;-67
2021/08/28 07:58:39;;;;;;;;;1.00;1.00;;;;;26.86;38.23;102162.94;5032661;28;45448;-67
2021/08/28 08:01:05;;;;;;;;;0.75;0.75;;;;;26.85;38.02;102158.63;5032713;28;45630;-67
2021/08/28 08:03:30;;;;;;;;;1.00;1.00;;;;;26.86;37.68;102170.94;5032538;28;47161;-67
2021/08/28 08:05:55;;;;;;;;;1.00;1.00;;;;;26.86;38.26;102168.25;5034239;28;45277;-67
2021/08/28 08:08:21;;;;;;;;;1.75;1.00;;;;;26.85;38.07;102162.09;5033184;28;45517;-67
2021/08/28 08:10:46;;;;;;;;;2.50;1.00;;;;;26.85;38.12;102161.28;5032649;28;45421;-67
2021/08/28 08:13:11;;;;;;;;;1.00;1.00;;;;;26.84;38.04;102171.13;5020551;28;47538;-67
2021/08/28 08:15:37;;;;;;;;;1.50;1.25;;;;;26.84;38.11;102165.78;5036021;28;45445;-67
2021/08/28 08:18:02;;;;;;;;;0.00;0.00;;;;;26.83;38.13;102166.78;5036946;28;45405;-67
2021/08/28 08:20:28;;;;;;;;;0.75;0.75;;;;;26.85;37.92;102171.97;5037359;28;45329;-67
2021/08/28 08:22:53;;;;;;;;;1.50;1.50;;;;;26.83;38.00;102177.47;5035889;28;45413;-67
2021/08/28 08:25:19;;;;;;;;;2.00;0.00;;;;;26.84;37.91;102178.31;5035925;28;45432;-67
2021/08/28 08:27:44;;;;;;;;;2.50;1.00;;;;;26.82;37.75;102172.31;5035456;28;45521;-67
2021/08/28 08:30:10;;;;;;;;;1.75;0.00;;;;;26.82;38.33;102178.50;5036488;28;45313;-67
2021/08/28 08:32:36;;;;;;;;;2.75;2.00;;;;;26.81;38.09;102182.16;5031525;28;45447;-67
2021/08/28 08:35:03;;;;;;;;;1.50;1.00;;;;;26.83;38.28;102177.47;5029635;28;45509;-67
2021/08/28 08:37:28;;;;;;;;;0.00;0.00;;;;;26.80;37.92;102177.84;5035204;28;45483;-67
2021/08/28 08:39:53;;;;;;;;;2.00;0.50;;;;;26.83;38.12;102185.47;5035641;28;45399;-67
2021/08/28 08:42:22;;;;;;;;;0.00;0.00;;;;;26.84;38.04;102183.66;5035278;28;46214;-67
2021/08/28 08:44:48;;;;;;;;;1.75;0.75;;;;;26.82;38.26;102183.84;5033321;28;45548;-67
2021/08/28 08:47:15;;;;;;;;;0.00;0.00;;;;;26.81;38.41;102190.19;5035448;28;45403;-67
2021/08/28 08:49:41;;;;;;;;;0.25;0.25;;;;;26.82;38.41;102185.66;5035556;28;45399;-67
2021/08/28 08:52:07;;;;;;;;;1.00;0.00;;;;;26.80;38.06;102177.84;5035158;28;45946;-67
2021/08/28 08:54:33;;;;;;;;;1.00;1.00;;;;;26.81;38.30;102184.84;5035453;28;45393;-68
2021/08/28 08:56:59;;;;;;;;;1.00;1.00;;;;;26.82;38.26;102189.19;5036266;28;45247;-67
2021/08/28 08:59:25;;;;;;;;;0.00;0.00;;;;;26.81;38.38;102182.16;5036396;28;45548;-67
2021/08/28 09:01:50;;;;;;;;;2.00;1.00;;;;;26.81;38.29;102190.19;5035114;28;45505;-67
2021/08/28 09:04:16;;;;;;;;;1.00;1.00;;;;;26.82;38.33;102191.84;5034840;28;45373;-67
2021/08/28 09:06:46;;;;;;;;;3.00;1.00;;;;;26.82;38.29;102189.19;5035375;28;45443;-67
2021/08/28 09:09:11;;;;;;;;;1.00;1.00;;;;;26.83;38.59;102189.97;5035398;28;45387;-67
2021/08/28 09:11:37;;;;;;;;;0.50;0.50;;;;;26.83;38.34;102190.81;5030701;28;47071;-67
2021/08/28 09:14:20;;;;;;;;;1.00;1.00;;;;;26.87;38.38;102187.78;5029176;28;45406;-67
2021/08/28 09:16:46;;;;;;;;;0.00;0.00;;;;;26.85;38.28;102188.78;5035216;28;45366;-68
2021/08/28 09:19:13;;;;;;;;;0.33;0.33;;;;;26.84;38.10;102189.81;5034959;28;45524;-67
2021/08/28 09:21:39;;;;;;;;;0.67;0.67;;;;;26.85;38.03;102194.13;5034771;28;46216;-67
2021/08/28 09:24:07;;;;;;;;;1.00;1.00;;;;;26.85;38.23;102190.66;5034332;28;45307;-67
2021/08/28 09:26:42;;;;;;;;;3.75;1.50;;;;;26.85;38.39;102188.78;5034460;28;45393;-67
2021/08/28 09:29:11;;;;;;;;;2.00;1.00;;;;;26.84;38.83;102183.66;5034820;28;45444;-67
2021/08/28 09:31:48;;;;;;;;;1.00;1.00;;;;;26.85;38.28;102183.44;5034487;28;46830;-67
2021/08/28 09:34:16;;;;;;;;;0.67;0.67;;;;;26.85;38.19;102188.78;5034707;28;45560;-67
2021/08/28 09:36:42;;;;;;;;;1.00;1.00;;;;;26.85;38.19;102182.66;5034793;28;45473;-67
2021/08/28 09:39:07;;;;;;;;;1.00;1.00;;;;;26.85;38.50;102188.78;5034643;28;45507;-67
2021/08/28 09:41:33;;;;;;;;;1.00;1.00;;;;;26.87;38.41;102196.63;5036225;28;47154;-67
2021/08/28 09:44:08;;;;;;;;;1.00;1.00;;;;;26.87;38.13;102188.63;5034480;28;45496;-67
2021/08/28 09:46:34;;;;;;;;;1.00;1.00;;;;;26.86;38.39;102181.63;5034586;28;45565;-67
2021/08/28 09:49:01;;;;;;;;;1.00;0.25;;;;;26.85;38.27;102186.13;5028568;28;45397;-67
2021/08/28 09:51:33;;;;;;;;;2.00;1.00;;;;;26.86;38.60;102189.63;5032521;28;46425;-67
2021/08/28 09:53:59;;;;;;;;;0.00;0.00;;;;;26.85;38.20;102180.78;5032982;28;45363;-67
2021/08/28 09:56:27;;;;;;;;;0.00;0.00;;;;;26.86;38.59;102184.28;5034816;28;45572;-67
2021/08/28 09:58:52;;;;;;;;;2.00;0.00;;;;;26.84;38.52;102187.16;5034223;28;45653;-67
2021/08/28 10:01:21;;;;;;;;;1.00;1.00;;;;;26.84;38.33;102181.81;5034235;28;46436;-67
2021/08/28 10:03:58;;;;;;;;;2.00;1.25;;;;;26.84;38.24;102180.97;5034252;28;45525;-67
2021/08/28 10:06:23;;;;;;;;;0.00;0.00;;;;;26.86;38.47;102181.63;5018716;28;45564;-67
2021/08/28 10:08:50;;;;;;;;;1.33;1.33;;;;;26.83;38.83;102176.63;5036196;28;45361;-67
2021/08/28 10:11:15;;;;;;;;;1.00;1.00;;;;;26.84;38.54;102173.81;5033755;28;47684;-67
2021/08/28 10:13:41;;;;;;;;;0.00;0.00;;;;;26.85;38.73;102182.66;5033993;28;45404;-67
2021/08/28 10:16:07;;;;;;;;;0.67;0.67;;;;;26.85;38.45;102172.78;5034266;28;45465;-67
2021/08/28 10:18:34;;;;;;;;;1.00;1.00;;;;;26.84;38.49;102176.47;5034351;28;45532;-67
2021/08/28 10:21:02;;;;;;;;;2.00;1.00;;;;;26.86;38.40;102178.94;5034968;28;46075;-67
2021/08/28 10:23:30;;;;;;;;;0.50;0.50;;;;;26.83;38.57;102176.63;5035409;28;45224;-67
2021/08/28 10:25:57;;;;;;;;;4.00;1.25;;;;;26.85;38.27;102177.31;5021418;28;45468;-67
2021/08/28 10:28:23;;;;;;;;;2.00;1.25;;;;;26.84;38.40;102181.81;5027759;28;45508;-67
2021/08/28 10:30:49;;;;;;;;;2.00;2.00;;;;;26.83;38.79;102176.63;5028928;28;45940;-67
2021/08/28 10:33:15;;;;;;;;;1.00;0.75;;;;;26.82;38.43;102181.16;5033032;28;45300;-67
2021/08/28 10:35:40;;;;;;;;;0.25;0.25;;;;;26.84;38.55;102187.16;5035446;28;45426;-67
2021/08/28 10:38:07;;;;;;;;;1.33;1.00;;;;;26.84;38.49;102184.47;5033821;28;45481;-67
2021/08/28 10:40:33;;;;;;;;;1.00;1.00;;;;;26.84;38.38;102180.97;5033360;28;45358;-67
2021/08/28 10:43:03;;;;;;;;;1.00;1.00;;;;;26.84;38.60;102188.97;5033608;28;45362;-67
2021/08/28 10:45:31;;;;;;;;;1.00;1.00;;;;;26.84;38.38;102180.97;5033709;28;45374;-67
2021/08/28 10:48:01;;;;;;;;;0.00;0.00;;;;;26.84;38.83;102176.47;5035033;28;45524;-67
2021/08/28 10:50:36;;;;;;;;;1.00;1.00;;;;;26.85;38.52;102186.13;5034475;28;46440;-67
2021/08/28 10:53:02;;;;;;;;;0.50;0.50;;;;;26.87;38.84;102187.78;5033150;28;45409;-67
2021/08/28 10:55:44;;;;;;;;;2.00;0.00;;;;;26.87;38.82;102179.78;5033486;28;45410;-67
2021/08/28 10:58:15;;;;;;;;;1.00;1.00;;;;;26.87;38.32;102183.28;5033531;28;45451;-67
2021/08/28 11:00:48;;;;;;;;;1.00;1.00;;;;;26.85;38.54;102177.31;5033466;28;46105;-67
2021/08/28 11:03:29;;;;;;;;;1.00;1.00;;;;;26.88;38.59;102181.44;5033477;28;45570;-67
2021/08/28 11:06:13;;;;;;;;;1.00;1.00;;;;;26.88;38.53;102178.78;5031688;28;45364;-67
2021/08/28 11:08:55;;;;;;;;;1.00;1.00;;;;;26.88;38.37;102181.44;5029211;28;45447;-67
2021/08/28 11:11:43;;;;;;;;;1.25;1.25;;;;;26.89;38.29;102175.09;5027991;28;45299;-67
2021/08/28 11:14:14;;;;;;;;;1.00;1.00;;;;;26.88;38.48;102179.59;5033212;28;47709;-67
2021/08/28 11:16:42;;;;;;;;;0.50;0.50;;;;;26.90;38.63;102168.75;5033273;28;45443;-67
2021/08/28 11:19:22;;;;;;;;;0.50;0.50;;;;;26.89;38.45;102167.91;5033184;28;46346;-67
2021/08/28 11:21:49;;;;;;;;;0.00;0.00;;;;;26.88;38.63;102168.09;5032844;28;46381;-68
2021/08/28 11:24:19;;;;;;;;;0.33;0.33;;;;;26.88;38.26;102160.09;5033158;28;45290;-67